createdAt,value
2023-04-18T00:00:00.274Z,42.96
2023-04-18T00:01:00.255Z,43.02
2023-04-18T00:02:00.382Z,42.96
2023-04-18T00:03:03.282Z,42.93
2023-04-18T00:03:59.496Z,42.95
2023-04-18T00:04:59.365Z,42.92
2023-04-18T00:06:00.257Z,42.94
2023-04-18T00:06:59.259Z,42.89
2023-04-18T00:07:59.224Z,42.91
2023-04-18T00:09:00.239Z,42.95
2023-04-18T00:09:59.424Z,42.91
2023-04-18T00:10:59.557Z,42.94
2023-04-18T00:12:00.684Z,42.90
2023-04-18T00:12:59.338Z,42.92
2023-04-18T00:13:59.298Z,42.86
2023-04-18T00:15:00.789Z,42.90
2023-04-18T00:16:00.168Z,42.97
2023-04-18T00:17:00.230Z,42.94
2023-04-18T00:18:00.284Z,42.86
2023-04-18T00:19:00.175Z,42.93
2023-04-18T00:20:00.147Z,42.93
2023-04-18T00:21:00.162Z,42.92
2023-04-18T00:22:00.158Z,42.91
2023-04-18T00:22:59.126Z,42.89
2023-04-18T00:23:59.123Z,42.86
2023-04-18T00:25:00.119Z,42.88
2023-04-18T00:26:00.128Z,42.91
2023-04-18T00:26:59.129Z,42.86
2023-04-18T00:28:00.141Z,42.89
2023-04-18T00:28:59.074Z,42.84
2023-04-18T00:30:00.106Z,42.87
2023-04-18T00:30:59.133Z,42.86
2023-04-18T00:32:00.094Z,42.85
2023-04-18T00:33:00.172Z,42.89
2023-04-18T00:34:00.091Z,42.90
2023-04-18T00:34:59.036Z,42.87
2023-04-18T00:35:59.048Z,42.89
2023-04-18T00:37:00.027Z,42.88
2023-04-18T00:38:00.027Z,42.87
2023-04-18T00:39:00.028Z,42.87
2023-04-18T00:39:59.994Z,42.85
2023-04-18T00:40:58.984Z,42.84
2023-04-18T00:41:58.992Z,42.85
2023-04-18T00:42:58.991Z,42.85
2023-04-18T00:43:58.978Z,42.85
2023-04-18T00:44:58.981Z,42.79
2023-04-18T00:45:59.986Z,42.80
2023-04-18T00:46:58.940Z,42.83
2023-04-18T00:47:59.961Z,42.81
2023-04-18T00:48:59.938Z,42.82
2023-04-18T00:49:59.986Z,42.85
2023-04-18T00:50:59.950Z,42.83
2023-04-18T00:51:59.911Z,42.82
2023-04-18T00:52:59.917Z,42.83
2023-04-18T00:53:59.220Z,42.84
2023-04-18T00:55:00.204Z,42.82
2023-04-18T00:56:00.302Z,42.79
2023-04-18T00:56:58.887Z,42.83
2023-04-18T00:57:59.898Z,42.77
2023-04-18T00:58:58.854Z,42.82
2023-04-18T00:59:59.886Z,42.79
2023-04-18T01:00:59.854Z,42.77
2023-04-18T01:01:59.002Z,42.80
2023-04-18T01:02:59.020Z,42.84
2023-04-18T01:03:58.905Z,42.81
2023-04-18T01:04:59.863Z,42.83
2023-04-18T01:05:58.907Z,42.79
2023-04-18T01:06:58.873Z,42.81
2023-04-18T01:07:58.919Z,42.81
2023-04-18T01:08:59.240Z,42.82
2023-04-18T01:09:59.015Z,42.74
2023-04-18T01:10:59.096Z,42.79
2023-04-18T01:12:00.045Z,42.79
2023-04-18T01:13:00.210Z,42.78
2023-04-18T01:13:59.085Z,42.76
2023-04-18T01:15:00.060Z,42.77
2023-04-18T01:16:00.299Z,42.80
2023-04-18T01:17:00.055Z,42.76
2023-04-18T01:18:00.208Z,42.75
2023-04-18T01:19:00.213Z,42.80
2023-04-18T01:20:00.259Z,42.78
2023-04-18T01:21:00.077Z,42.83
2023-04-18T01:22:00.368Z,42.79
2023-04-18T01:22:59.929Z,42.75
2023-04-18T01:23:59.922Z,42.79
2023-04-18T01:24:59.922Z,42.72
2023-04-18T01:25:59.949Z,42.75
2023-04-18T01:26:59.925Z,42.80
2023-04-18T01:27:58.933Z,42.78
2023-04-18T01:28:59.960Z,42.79
2023-04-18T01:29:59.923Z,42.76
2023-04-18T01:30:59.931Z,42.76
2023-04-18T01:31:58.922Z,42.75
2023-04-18T01:32:58.947Z,42.72
2023-04-18T01:33:59.935Z,42.70
2023-04-18T01:35:00.222Z,42.68
2023-04-18T01:36:00.080Z,42.61
2023-04-18T01:37:00.286Z,42.60
2023-04-18T01:38:00.853Z,42.69
2023-04-18T01:39:00.194Z,42.71
2023-04-18T01:40:00.210Z,42.67
2023-04-18T01:41:00.193Z,42.62
2023-04-18T01:42:00.212Z,42.58
2023-04-18T01:43:00.065Z,42.59
2023-04-18T01:44:00.538Z,42.55
2023-04-18T01:45:00.385Z,42.51
2023-04-18T01:45:59.998Z,42.52
2023-04-18T01:46:59.044Z,42.52
2023-04-18T01:47:59.048Z,42.44
2023-04-18T01:49:00.018Z,42.43
2023-04-18T01:49:59.990Z,42.39
2023-04-18T01:50:58.990Z,42.38
2023-04-18T01:52:00.047Z,42.39
2023-04-18T01:52:59.988Z,42.34
2023-04-18T01:53:59.326Z,42.33
2023-04-18T01:54:59.969Z,42.29
2023-04-18T01:55:58.974Z,42.32
2023-04-18T01:56:58.985Z,42.23
2023-04-18T01:57:58.962Z,42.23
2023-04-18T01:58:59.970Z,42.19
2023-04-18T01:59:59.982Z,42.19
2023-04-18T02:01:00.057Z,42.15
2023-04-18T02:02:00.104Z,42.14
2023-04-18T02:03:00.541Z,42.11
2023-04-18T02:03:59.565Z,42.09
2023-04-18T02:05:00.118Z,42.07
2023-04-18T02:05:59.063Z,42.01
2023-04-18T02:07:00.070Z,41.99
2023-04-18T02:08:00.051Z,42.00
2023-04-18T02:09:00.043Z,42.00
2023-04-18T02:10:00.085Z,41.95
2023-04-18T02:11:00.065Z,41.89
2023-04-18T02:12:00.021Z,41.94
2023-04-18T02:12:59.013Z,41.93
2023-04-18T02:14:00.078Z,41.81
2023-04-18T02:15:00.000Z,41.85
2023-04-18T02:16:00.072Z,41.76
2023-04-18T02:16:59.048Z,41.80
2023-04-18T02:17:58.988Z,41.79
2023-04-18T02:18:59.975Z,41.75
2023-04-18T02:19:58.967Z,41.76
2023-04-18T02:20:59.956Z,41.73
2023-04-18T02:21:59.964Z,41.67
2023-04-18T02:22:59.940Z,41.69
2023-04-18T02:23:59.951Z,41.66
2023-04-18T02:24:59.942Z,41.66
2023-04-18T02:25:59.933Z,41.68
2023-04-18T02:26:59.918Z,41.64
2023-04-18T02:28:00.005Z,41.65
2023-04-18T02:28:58.961Z,41.60
2023-04-18T02:29:59.915Z,41.59
2023-04-18T02:30:59.900Z,41.59
2023-04-18T02:32:00.005Z,41.57
2023-04-18T02:33:00.078Z,41.56
2023-04-18T02:33:59.109Z,41.60
2023-04-18T02:35:00.443Z,41.56
2023-04-18T02:35:59.483Z,41.54
2023-04-18T02:37:00.853Z,41.54
2023-04-18T02:38:00.000Z,41.51
2023-04-18T02:38:59.707Z,41.51
2023-04-18T02:40:00.879Z,41.50
2023-04-18T02:41:00.973Z,41.49
2023-04-18T02:41:59.757Z,41.46
2023-04-18T02:43:00.783Z,41.43
2023-04-18T02:44:01.221Z,41.43
2023-04-18T02:45:01.202Z,41.44
2023-04-18T02:46:00.024Z,41.45
2023-04-18T02:47:00.798Z,41.46
2023-04-18T02:48:01.221Z,41.44
2023-04-18T02:49:01.162Z,41.41
2023-04-18T02:50:00.559Z,41.36
2023-04-18T02:51:00.990Z,41.38
2023-04-18T02:52:01.481Z,41.38
2023-04-18T02:53:01.272Z,41.38
2023-04-18T02:54:01.179Z,41.36
2023-04-18T02:55:01.497Z,41.37
2023-04-18T02:56:01.527Z,41.36
2023-04-18T02:57:01.410Z,41.27
2023-04-18T02:58:01.834Z,41.32
2023-04-18T02:59:00.751Z,41.28
2023-04-18T03:00:01.658Z,41.31
2023-04-18T03:01:01.715Z,41.30
2023-04-18T03:02:01.860Z,41.32
2023-04-18T03:03:01.838Z,41.27
2023-04-18T03:04:01.254Z,41.31
2023-04-18T03:05:01.365Z,41.28
2023-04-18T03:06:01.346Z,41.26
2023-04-18T03:07:00.437Z,41.26
2023-04-18T03:08:01.458Z,41.26
2023-04-18T03:09:01.470Z,41.28
2023-04-18T03:10:00.539Z,41.23
2023-04-18T03:11:00.556Z,41.22
2023-04-18T03:12:01.604Z,41.22
2023-04-18T03:13:01.755Z,41.23
2023-04-18T03:14:01.786Z,41.25
2023-04-18T03:15:01.752Z,41.22
2023-04-18T03:16:01.805Z,41.20
2023-04-18T03:17:01.848Z,41.25
2023-04-18T03:18:00.960Z,41.23
2023-04-18T03:19:00.944Z,41.21
2023-04-18T03:20:01.010Z,41.17
2023-04-18T03:21:02.121Z,41.13
2023-04-18T03:22:01.084Z,41.14
2023-04-18T03:23:01.454Z,41.18
2023-04-18T03:24:02.393Z,41.12
2023-04-18T03:25:02.207Z,41.13
2023-04-18T03:26:01.269Z,41.13
2023-04-18T03:27:01.308Z,41.16
2023-04-18T03:28:02.364Z,41.13
2023-04-18T03:29:02.413Z,41.12
2023-04-18T03:30:02.451Z,41.12
2023-04-18T03:31:02.527Z,41.14
2023-04-18T03:32:02.539Z,41.17
2023-04-18T03:33:02.743Z,41.11
2023-04-18T03:34:01.647Z,41.13
2023-04-18T03:35:02.665Z,41.17
2023-04-18T03:36:01.726Z,41.13
2023-04-18T03:37:02.814Z,41.12
2023-04-18T03:38:01.818Z,41.10
2023-04-18T03:39:02.877Z,41.12
2023-04-18T03:40:02.914Z,41.10
2023-04-18T03:41:02.973Z,41.07
2023-04-18T03:42:03.009Z,41.08
2023-04-18T03:43:02.042Z,41.07
2023-04-18T03:44:02.113Z,41.07
2023-04-18T03:45:02.119Z,41.03
2023-04-18T03:46:02.266Z,41.08
2023-04-18T03:47:03.189Z,41.06
2023-04-18T03:48:03.339Z,41.06
2023-04-18T03:49:03.321Z,41.02
2023-04-18T03:50:03.335Z,41.07
2023-04-18T03:51:02.381Z,41.04
2023-04-18T03:52:03.433Z,41.01
2023-04-18T03:53:03.455Z,41.04
2023-04-18T03:54:03.523Z,41.02
2023-04-18T03:55:03.573Z,41.00
2023-04-18T03:56:03.614Z,40.99
2023-04-18T03:57:03.641Z,40.99
2023-04-18T03:58:02.686Z,41.00
2023-04-18T03:59:02.716Z,41.00
2023-04-18T04:00:02.754Z,41.00
2023-04-18T04:01:03.812Z,41.06
2023-04-18T04:02:04.172Z,40.99
2023-04-18T04:03:04.325Z,41.00
2023-04-18T04:04:04.686Z,41.00
2023-04-18T04:05:04.427Z,41.02
2023-04-18T04:06:04.226Z,41.02
2023-04-18T04:07:03.167Z,40.99
2023-04-18T04:08:04.130Z,40.95
2023-04-18T04:09:03.139Z,40.96
2023-04-18T04:10:04.356Z,41.01
2023-04-18T04:11:04.210Z,40.99
2023-04-18T04:12:04.151Z,40.99
2023-04-18T04:13:04.838Z,41.04
2023-04-18T04:14:03.441Z,41.04
2023-04-18T04:15:04.409Z,40.98
2023-04-18T04:16:03.446Z,41.04
2023-04-18T04:17:04.678Z,40.99
2023-04-18T04:18:04.669Z,41.01
2023-04-18T04:19:04.413Z,41.03
2023-04-18T04:20:04.727Z,41.03
2023-04-18T04:21:04.407Z,41.03
2023-04-18T04:22:04.625Z,41.00
2023-04-18T04:23:04.634Z,40.97
2023-04-18T04:24:03.675Z,41.00
2023-04-18T04:25:03.714Z,41.03
2023-04-18T04:26:04.564Z,40.99
2023-04-18T04:27:03.601Z,41.00
2023-04-18T04:28:03.781Z,41.05
2023-04-18T04:29:05.289Z,40.97
2023-04-18T04:30:03.714Z,40.96
2023-04-18T04:31:03.596Z,40.99
2023-04-18T04:32:04.027Z,41.01
2023-04-18T04:33:04.743Z,40.96
2023-04-18T04:34:04.081Z,41.01
2023-04-18T04:35:03.332Z,40.99
2023-04-18T04:36:03.329Z,40.98
2023-04-18T04:37:03.307Z,40.96
2023-04-18T04:38:04.328Z,40.94
2023-04-18T04:39:03.297Z,40.99
2023-04-18T04:40:04.280Z,40.99
2023-04-18T04:41:03.314Z,40.96
2023-04-18T04:42:04.277Z,40.96
2023-04-18T04:43:04.257Z,40.95
2023-04-18T04:44:04.262Z,40.95
2023-04-18T04:45:03.374Z,40.92
2023-04-18T04:46:04.352Z,40.98
2023-04-18T04:47:03.241Z,40.94
2023-04-18T04:48:03.412Z,40.91
2023-04-18T04:49:04.290Z,40.86
2023-04-18T04:50:04.358Z,40.90
2023-04-18T04:51:04.364Z,40.91
2023-04-18T04:52:04.446Z,40.90
2023-04-18T04:53:04.457Z,40.89
2023-04-18T04:54:04.515Z,40.87
2023-04-18T04:55:04.532Z,40.85
2023-04-18T04:56:04.579Z,40.84
2023-04-18T04:57:04.641Z,40.83
2023-04-18T04:58:04.757Z,40.86
2023-04-18T04:59:04.720Z,40.83
2023-04-18T05:00:04.754Z,40.86
2023-04-18T05:01:03.842Z,40.78
2023-04-18T05:02:03.915Z,40.82
2023-04-18T05:03:03.951Z,40.81
2023-04-18T05:04:05.013Z,40.82
2023-04-18T05:05:05.143Z,40.84
2023-04-18T05:06:05.005Z,40.78
2023-04-18T05:07:05.015Z,40.79
2023-04-18T05:08:05.147Z,40.84
2023-04-18T05:09:04.136Z,40.86
2023-04-18T05:10:04.164Z,40.80
2023-04-18T05:11:04.190Z,40.80
2023-04-18T05:12:05.245Z,40.82
2023-04-18T05:13:05.268Z,40.80
2023-04-18T05:14:05.324Z,40.80
2023-04-18T05:15:05.389Z,40.81
2023-04-18T05:16:04.402Z,40.82
2023-04-18T05:17:04.489Z,40.81
2023-04-18T05:18:04.501Z,40.80
2023-04-18T05:19:05.509Z,40.81
2023-04-18T05:20:05.570Z,40.84
2023-04-18T05:21:04.601Z,40.85
2023-04-18T05:22:04.651Z,40.82
2023-04-18T05:23:04.663Z,40.82
2023-04-18T05:24:04.731Z,40.79
2023-04-18T05:25:04.808Z,40.80
2023-04-18T05:26:04.784Z,40.78
2023-04-18T05:27:05.891Z,40.94
2023-04-18T05:28:04.851Z,40.99
2023-04-18T05:29:05.934Z,41.06
2023-04-18T05:30:05.927Z,41.66
2023-04-18T05:31:06.013Z,41.35
2023-04-18T05:32:06.011Z,41.16
2023-04-18T05:33:05.151Z,41.20
2023-04-18T05:34:05.124Z,41.16
2023-04-18T05:35:06.117Z,40.89
2023-04-18T05:36:06.158Z,41.20
2023-04-18T05:37:07.740Z,41.05
2023-04-18T05:38:06.170Z,41.20
2023-04-18T05:39:06.174Z,41.26
2023-04-18T05:40:05.126Z,41.17
2023-04-18T05:41:05.144Z,41.23
2023-04-18T05:42:06.121Z,41.56
2023-04-18T05:43:06.102Z,41.78
2023-04-18T05:44:06.360Z,41.60
2023-04-18T05:45:05.123Z,41.63
2023-04-18T05:46:05.091Z,42.23
2023-04-18T05:47:06.104Z,42.34
2023-04-18T05:48:06.100Z,43.00
2023-04-18T05:49:06.120Z,42.86
2023-04-18T05:50:06.075Z,43.40
2023-04-18T05:51:05.201Z,43.61
2023-04-18T05:52:06.085Z,43.40
2023-04-18T05:53:06.967Z,43.34
2023-04-18T05:54:06.147Z,43.88
2023-04-18T05:55:05.035Z,44.13
2023-04-18T05:56:06.085Z,44.30
2023-04-18T05:57:06.334Z,44.35
2023-04-18T05:58:07.393Z,44.63
2023-04-18T05:59:05.033Z,45.13
2023-04-18T06:00:06.039Z,45.14
2023-04-18T06:01:12.172Z,45.05
2023-04-18T06:02:04.986Z,44.63
2023-04-18T06:03:08.564Z,44.98
2023-04-18T06:04:06.134Z,44.89
2023-04-18T06:05:06.070Z,44.82
2023-04-18T06:06:05.958Z,44.74
2023-04-18T06:07:04.948Z,44.72
2023-04-18T06:08:05.945Z,44.74
2023-04-18T06:09:05.923Z,45.10
2023-04-18T06:10:05.985Z,44.88
2023-04-18T06:11:04.954Z,44.97
2023-04-18T06:12:05.902Z,44.95
2023-04-18T06:13:05.930Z,45.18
2023-04-18T06:14:04.996Z,45.27
2023-04-18T06:15:05.021Z,45.46
2023-04-18T06:16:06.205Z,45.55
2023-04-18T06:17:06.141Z,45.35
2023-04-18T06:18:06.227Z,45.70
2023-04-18T06:19:05.333Z,45.68
2023-04-18T06:20:05.275Z,45.69
2023-04-18T06:21:05.333Z,45.96
2023-04-18T06:22:06.378Z,45.88
2023-04-18T06:23:06.405Z,46.01
2023-04-18T06:24:06.431Z,46.22
2023-04-18T06:25:05.437Z,46.27
2023-04-18T06:26:06.507Z,46.26
2023-04-18T06:27:05.528Z,46.80
2023-04-18T06:28:06.567Z,46.29
2023-04-18T06:29:06.574Z,46.27
2023-04-18T06:30:05.580Z,46.42
2023-04-18T06:31:05.661Z,46.33
2023-04-18T06:32:06.693Z,46.19
2023-04-18T06:33:06.673Z,46.51
2023-04-18T06:34:05.655Z,46.49
2023-04-18T06:35:06.678Z,46.52
2023-04-18T06:36:06.685Z,46.23
2023-04-18T06:37:06.698Z,46.36
2023-04-18T06:38:06.725Z,46.55
2023-04-18T06:39:06.757Z,46.34
2023-04-18T06:40:05.755Z,46.52
2023-04-18T06:41:06.802Z,46.62
2023-04-18T06:42:06.802Z,46.40
2023-04-18T06:43:06.773Z,46.45
2023-04-18T06:44:06.794Z,46.41
2023-04-18T06:45:05.806Z,46.28
2023-04-18T06:46:06.010Z,46.06
2023-04-18T06:47:06.893Z,45.99
2023-04-18T06:48:06.958Z,45.78
2023-04-18T06:49:07.056Z,45.75
2023-04-18T06:50:06.031Z,45.63
2023-04-18T06:51:07.113Z,46.14
2023-04-18T06:52:07.147Z,44.11
2023-04-18T06:53:07.177Z,42.92
2023-04-18T06:54:07.202Z,42.89
2023-04-18T06:55:07.245Z,43.32
2023-04-18T06:56:07.685Z,44.04
2023-04-18T06:57:07.321Z,43.93
2023-04-18T06:58:06.487Z,44.64
2023-04-18T06:59:07.334Z,44.53
2023-04-18T07:00:07.378Z,44.16
2023-04-18T07:01:06.449Z,43.99
2023-04-18T07:02:06.479Z,43.91
2023-04-18T07:03:10.343Z,43.74
2023-04-18T07:04:06.612Z,43.68
2023-04-18T07:05:07.520Z,43.63
2023-04-18T07:06:07.517Z,43.55
2023-04-18T07:07:07.491Z,43.40
2023-04-18T07:08:07.508Z,43.39
2023-04-18T07:09:06.475Z,43.36
2023-04-18T07:10:07.849Z,43.19
2023-04-18T07:11:07.556Z,43.17
2023-04-18T07:12:07.455Z,43.21
2023-04-18T07:13:07.440Z,42.93
2023-04-18T07:14:06.554Z,42.90
2023-04-18T07:15:07.484Z,42.75
2023-04-18T07:16:07.458Z,42.71
2023-04-18T07:17:06.559Z,42.71
2023-04-18T07:18:07.483Z,42.68
2023-04-18T07:19:06.411Z,42.51
2023-04-18T07:20:06.413Z,42.60
2023-04-18T07:21:07.845Z,42.63
2023-04-18T07:22:07.385Z,42.64
2023-04-18T07:23:07.385Z,42.42
2023-04-18T07:24:07.478Z,42.42
2023-04-18T07:25:06.390Z,42.41
2023-04-18T07:26:07.376Z,42.38
2023-04-18T07:27:07.352Z,42.39
2023-04-18T07:28:06.364Z,42.33
2023-04-18T07:29:06.326Z,42.19
2023-04-18T07:30:06.500Z,42.39
2023-04-18T07:31:06.373Z,42.16
2023-04-18T07:32:08.461Z,42.31
2023-04-18T07:33:07.317Z,42.20
2023-04-18T07:34:07.314Z,42.37
2023-04-18T07:35:07.349Z,42.56
2023-04-18T07:36:07.377Z,42.62
2023-04-18T07:37:07.447Z,42.72
2023-04-18T07:38:07.431Z,42.82
2023-04-18T07:39:06.452Z,42.95
2023-04-18T07:40:07.466Z,43.10
2023-04-18T07:41:06.467Z,43.31
2023-04-18T07:42:07.464Z,43.31
2023-04-18T07:43:06.463Z,43.30
2023-04-18T07:44:07.463Z,43.51
2023-04-18T07:45:07.475Z,43.55
2023-04-18T07:46:07.733Z,43.50
2023-04-18T07:47:07.468Z,43.83
2023-04-18T07:48:07.541Z,41.64
2023-04-18T07:49:06.540Z,41.19
2023-04-18T07:50:06.652Z,41.53
2023-04-18T07:51:07.709Z,41.54
2023-04-18T07:52:07.617Z,41.68
2023-04-18T07:53:07.626Z,41.96
2023-04-18T07:54:06.635Z,41.92
2023-04-18T07:55:07.657Z,41.95
2023-04-18T07:56:06.710Z,42.53
2023-04-18T07:57:06.762Z,43.02
2023-04-18T07:58:07.755Z,43.10
2023-04-18T07:59:07.829Z,42.90
2023-04-18T08:00:07.871Z,42.82
2023-04-18T08:01:07.836Z,42.75
2023-04-18T08:02:07.935Z,42.76
2023-04-18T08:03:07.094Z,42.86
2023-04-18T08:04:07.145Z,43.06
2023-04-18T08:05:08.158Z,43.14
2023-04-18T08:06:08.008Z,43.41
2023-04-18T08:07:08.052Z,43.43
2023-04-18T08:08:08.128Z,43.62
2023-04-18T08:09:07.160Z,43.46
2023-04-18T08:10:08.192Z,43.36
2023-04-18T08:11:08.239Z,43.36
2023-04-18T08:12:08.283Z,43.45
2023-04-18T08:13:08.327Z,43.59
2023-04-18T08:14:08.358Z,43.72
2023-04-18T08:15:07.426Z,43.76
2023-04-18T08:16:08.472Z,43.83
2023-04-18T08:17:07.485Z,43.99
2023-04-18T08:18:07.693Z,44.03
2023-04-18T08:19:07.553Z,44.05
2023-04-18T08:20:07.619Z,44.26
2023-04-18T08:21:07.645Z,44.12
2023-04-18T08:22:08.641Z,44.22
2023-04-18T08:23:11.181Z,44.28
2023-04-18T08:24:08.645Z,44.54
2023-04-18T08:25:07.657Z,44.61
2023-04-18T08:26:08.642Z,44.54
2023-04-18T08:27:08.638Z,44.56
2023-04-18T08:28:07.662Z,44.53
2023-04-18T08:29:07.637Z,44.72
2023-04-18T08:30:08.610Z,44.92
2023-04-18T08:31:07.629Z,45.00
2023-04-18T08:32:07.838Z,45.04
2023-04-18T08:33:07.667Z,45.14
2023-04-18T08:34:08.697Z,45.29
2023-04-18T08:35:07.575Z,45.45
2023-04-18T08:36:08.582Z,45.57
2023-04-18T08:37:07.571Z,45.58
2023-04-18T08:38:08.661Z,45.59
2023-04-18T08:39:08.564Z,45.68
2023-04-18T08:40:08.577Z,45.72
2023-04-18T08:41:08.561Z,45.89
2023-04-18T08:42:08.586Z,45.93
2023-04-18T08:43:08.577Z,45.77
2023-04-18T08:44:07.577Z,45.63
2023-04-18T08:45:08.634Z,46.32
2023-04-18T08:46:07.773Z,45.81
2023-04-18T08:47:07.722Z,45.44
2023-04-18T08:48:08.843Z,45.81
2023-04-18T08:49:10.673Z,45.60
2023-04-18T08:50:07.782Z,46.37
2023-04-18T08:51:08.744Z,45.89
2023-04-18T08:52:08.733Z,43.89
2023-04-18T08:53:08.716Z,44.35
2023-04-18T08:54:07.728Z,43.96
2023-04-18T08:55:08.719Z,43.40
2023-04-18T08:56:07.708Z,43.39
2023-04-18T08:57:08.745Z,43.44
2023-04-18T08:58:08.693Z,45.05
2023-04-18T08:59:07.694Z,44.97
2023-04-18T09:00:08.695Z,44.81
2023-04-18T09:01:08.728Z,44.11
2023-04-18T09:02:07.675Z,43.17
2023-04-18T09:03:08.808Z,43.36
2023-04-18T09:04:07.722Z,43.77
2023-04-18T09:05:07.645Z,44.18
2023-04-18T09:06:07.819Z,44.05
2023-04-18T09:07:08.629Z,43.91
2023-04-18T09:08:07.646Z,43.74
2023-04-18T09:09:08.620Z,43.54
2023-04-18T09:10:08.602Z,43.55
2023-04-18T09:11:08.608Z,43.54
2023-04-18T09:12:08.599Z,43.49
2023-04-18T09:13:08.595Z,43.28
2023-04-18T09:14:08.576Z,43.17
2023-04-18T09:15:07.581Z,43.17
2023-04-18T09:16:08.596Z,42.91
2023-04-18T09:17:08.550Z,42.91
2023-04-18T09:18:07.589Z,42.90
2023-04-18T09:19:07.546Z,42.92
2023-04-18T09:20:08.543Z,42.82
2023-04-18T09:21:08.517Z,42.83
2023-04-18T09:22:08.546Z,42.68
2023-04-18T09:23:07.525Z,42.84
2023-04-18T09:24:07.505Z,42.73
2023-04-18T09:25:07.509Z,42.75
2023-04-18T09:26:07.486Z,42.84
2023-04-18T09:27:08.495Z,42.61
2023-04-18T09:28:08.486Z,42.63
2023-04-18T09:29:08.478Z,42.83
2023-04-18T09:30:08.461Z,42.94
2023-04-18T09:31:07.513Z,43.08
2023-04-18T09:32:08.448Z,42.88
2023-04-18T09:33:08.450Z,42.57
2023-04-18T09:34:08.608Z,42.85
2023-04-18T09:35:07.434Z,42.88
2023-04-18T09:36:08.435Z,42.45
2023-04-18T09:37:07.497Z,42.77
2023-04-18T09:38:08.437Z,42.74
2023-04-18T09:39:08.432Z,42.67
2023-04-18T09:40:08.440Z,42.56
2023-04-18T09:41:07.459Z,42.24
2023-04-18T09:42:08.432Z,42.71
2023-04-18T09:43:08.435Z,42.50
2023-04-18T09:44:08.795Z,42.64
2023-04-18T09:45:08.505Z,42.63
2023-04-18T09:46:08.483Z,42.64
2023-04-18T09:47:08.755Z,42.17
2023-04-18T09:48:07.632Z,41.66
2023-04-18T09:49:10.941Z,41.89
2023-04-18T09:50:08.638Z,42.32
2023-04-18T09:51:07.575Z,42.74
2023-04-18T09:52:08.752Z,42.64
2023-04-18T09:53:07.548Z,42.48
2023-04-18T09:54:08.587Z,42.41
2023-04-18T09:55:07.556Z,42.36
2023-04-18T09:56:08.522Z,42.47
2023-04-18T09:57:08.525Z,42.28
2023-04-18T09:58:07.498Z,42.24
2023-04-18T09:59:08.490Z,42.21
2023-04-18T10:00:08.502Z,42.31
2023-04-18T10:01:08.577Z,42.21
2023-04-18T10:02:08.627Z,42.24
2023-04-18T10:03:08.605Z,42.24
2023-04-18T10:04:08.553Z,42.14
2023-04-18T10:05:07.522Z,42.19
2023-04-18T10:06:08.455Z,42.18
2023-04-18T10:07:07.461Z,42.24
2023-04-18T10:08:08.475Z,42.16
2023-04-18T10:09:08.416Z,42.14
2023-04-18T10:10:07.450Z,42.25
2023-04-18T10:11:07.406Z,42.15
2023-04-18T10:12:08.760Z,42.02
2023-04-18T10:13:08.443Z,42.06
2023-04-18T10:14:08.382Z,42.02
2023-04-18T10:15:07.399Z,42.05
2023-04-18T10:16:08.436Z,42.00
2023-04-18T10:17:07.386Z,42.05
2023-04-18T10:18:08.404Z,41.99
2023-04-18T10:19:08.357Z,42.08
2023-04-18T10:20:08.354Z,41.92
2023-04-18T10:21:07.359Z,41.89
2023-04-18T10:22:07.422Z,41.93
2023-04-18T10:23:07.447Z,41.93
2023-04-18T10:24:08.506Z,41.90
2023-04-18T10:25:08.565Z,41.77
2023-04-18T10:26:07.636Z,41.80
2023-04-18T10:27:08.672Z,41.73
2023-04-18T10:28:07.769Z,41.79
2023-04-18T10:29:08.746Z,41.72
2023-04-18T10:30:09.114Z,41.77
2023-04-18T10:31:08.883Z,41.65
2023-04-18T10:32:08.937Z,41.64
2023-04-18T10:33:18.324Z,41.64
2023-04-18T10:34:08.950Z,41.63
2023-04-18T10:35:08.970Z,41.59
2023-04-18T10:36:08.940Z,41.57
2023-04-18T10:37:09.012Z,41.52
2023-04-18T10:38:08.936Z,41.42
2023-04-18T10:39:08.922Z,41.42
2023-04-18T10:40:08.922Z,41.40
2023-04-18T10:41:08.905Z,41.33
2023-04-18T10:42:08.298Z,40.84
2023-04-18T10:43:08.889Z,41.72
2023-04-18T10:44:09.153Z,41.37
2023-04-18T10:45:08.887Z,41.27
2023-04-18T10:46:14.338Z,41.12
2023-04-18T10:47:09.307Z,41.05
2023-04-18T10:48:08.887Z,41.05
2023-04-18T10:49:08.855Z,40.94
2023-04-18T10:50:08.856Z,41.11
2023-04-18T10:51:08.854Z,41.14
2023-04-18T10:52:08.831Z,41.10
2023-04-18T10:53:08.885Z,41.07
2023-04-18T10:54:07.816Z,41.11
2023-04-18T10:55:07.807Z,41.01
2023-04-18T10:56:08.841Z,41.05
2023-04-18T10:57:07.892Z,40.94
2023-04-18T10:58:08.990Z,40.93
2023-04-18T10:59:09.020Z,40.69
2023-04-18T11:00:09.108Z,40.85
2023-04-18T11:01:08.174Z,40.81
2023-04-18T11:02:09.260Z,40.53
2023-04-18T11:03:09.398Z,40.45
2023-04-18T11:04:09.464Z,40.34
2023-04-18T11:05:08.391Z,40.10
2023-04-18T11:06:08.475Z,40.51
2023-04-18T11:07:09.491Z,40.40
2023-04-18T11:08:08.500Z,40.05
2023-04-18T11:09:09.564Z,39.87
2023-04-18T11:10:08.583Z,39.90
2023-04-18T11:11:09.637Z,39.99
2023-04-18T11:12:09.660Z,39.79
2023-04-18T11:13:09.691Z,39.93
2023-04-18T11:14:09.893Z,39.69
2023-04-18T11:15:09.676Z,39.76
2023-04-18T11:16:09.731Z,39.62
2023-04-18T11:17:09.704Z,39.60
2023-04-18T11:18:09.755Z,39.74
2023-04-18T11:19:09.722Z,39.82
2023-04-18T11:20:09.730Z,39.96
2023-04-18T11:21:09.827Z,40.12
2023-04-18T11:22:09.786Z,40.08
2023-04-18T11:23:09.746Z,39.98
2023-04-18T11:24:09.752Z,40.06
2023-04-18T11:25:09.765Z,39.95
2023-04-18T11:26:09.797Z,40.16
2023-04-18T11:27:09.777Z,40.17
2023-04-18T11:28:09.783Z,40.17
2023-04-18T11:29:08.765Z,40.18
2023-04-18T11:30:09.852Z,40.18
2023-04-18T11:31:09.764Z,40.14
2023-04-18T11:32:09.819Z,40.01
2023-04-18T11:33:09.045Z,40.13
2023-04-18T11:34:09.757Z,40.14
2023-04-18T11:35:09.750Z,40.16
2023-04-18T11:36:09.748Z,40.24
2023-04-18T11:37:09.796Z,40.43
2023-04-18T11:38:09.769Z,40.72
2023-04-18T11:39:08.792Z,40.49
2023-04-18T11:40:09.778Z,40.50
2023-04-18T11:41:09.786Z,40.19
2023-04-18T11:42:09.856Z,40.49
2023-04-18T11:43:08.803Z,40.23
2023-04-18T11:44:08.782Z,40.18
2023-04-18T11:45:08.772Z,40.33
2023-04-18T11:46:09.011Z,40.42
2023-04-18T11:47:09.807Z,40.46
2023-04-18T11:48:08.854Z,40.41
2023-04-18T11:49:09.814Z,40.46
2023-04-18T11:50:08.822Z,40.50
2023-04-18T11:51:09.841Z,40.48
2023-04-18T11:52:09.889Z,40.44
2023-04-18T11:53:09.859Z,40.47
2023-04-18T11:54:09.878Z,40.31
2023-04-18T11:55:09.846Z,40.39
2023-04-18T11:56:09.862Z,40.38
2023-04-18T11:57:08.872Z,40.37
2023-04-18T11:58:08.889Z,40.09
2023-04-18T11:59:08.874Z,40.17
2023-04-18T12:00:09.866Z,40.27
2023-04-18T12:01:09.871Z,40.11
2023-04-18T12:03:11.187Z,40.03
2023-04-18T12:04:10.043Z,39.94
2023-04-18T12:05:10.346Z,40.01
2023-04-18T12:06:09.902Z,39.91
2023-04-18T12:07:08.855Z,40.00
2023-04-18T12:08:09.895Z,39.99
2023-04-18T12:09:08.826Z,39.99
2023-04-18T12:10:08.816Z,39.95
2023-04-18T12:11:08.824Z,40.05
2023-04-18T12:12:09.817Z,39.90
2023-04-18T12:13:09.816Z,39.96
2023-04-18T12:14:09.810Z,39.75
2023-04-18T12:15:09.800Z,39.85
2023-04-18T12:16:09.869Z,39.79
2023-04-18T12:17:09.797Z,39.60
2023-04-18T12:18:09.877Z,39.86
2023-04-18T12:19:09.757Z,39.72
2023-04-18T12:20:09.779Z,39.67
2023-04-18T12:21:09.778Z,39.77
2023-04-18T12:22:08.731Z,39.63
2023-04-18T12:23:08.761Z,39.72
2023-04-18T12:24:08.733Z,39.92
2023-04-18T12:25:08.734Z,39.92
2023-04-18T12:26:08.706Z,39.80
2023-04-18T12:27:08.711Z,39.63
2023-04-18T12:28:09.722Z,39.70
2023-04-18T12:29:09.687Z,39.44
2023-04-18T12:30:09.698Z,39.87
2023-04-18T12:31:09.754Z,39.94
2023-04-18T12:32:08.676Z,40.30
2023-04-18T12:33:09.680Z,39.63
2023-04-18T12:34:09.681Z,39.42
2023-04-18T12:35:09.651Z,39.63
2023-04-18T12:36:09.664Z,39.83
2023-04-18T12:37:08.640Z,39.92
2023-04-18T12:38:08.636Z,39.65
2023-04-18T12:39:09.617Z,39.76
2023-04-18T12:40:08.617Z,39.97
2023-04-18T12:41:09.610Z,40.00
2023-04-18T12:42:08.606Z,40.05
2023-04-18T12:43:08.594Z,40.22
2023-04-18T12:44:09.582Z,40.21
2023-04-18T12:45:08.581Z,40.29
2023-04-18T12:46:09.605Z,40.24
2023-04-18T12:47:08.660Z,40.26
2023-04-18T12:48:08.593Z,40.19
2023-04-18T12:49:09.549Z,40.21
2023-04-18T12:51:08.528Z,40.23
2023-04-18T12:52:08.541Z,40.23
2023-04-18T12:53:08.597Z,40.21
2023-04-18T12:54:09.773Z,40.13